Time;durP1;ratioP1;P1;durP2;ratioP2;P2;SDS_P1;SDS_P2;PMS_P1;PMS_P2;Temp;Humidity;BMP_temperature;BMP_pressure;BME280_temperature;BME280_humidity;BME280_pressure;Samples;Min_cycle;Max_cycle;Signal;HPM_P1;HPM_P2
2021/06/05 00:01:55;;;;;;;4.75;2.00;;;14.50;65.70;;;;;;4193857;28;20341;-49
2021/06/05 00:03:59;;;;;;;5.80;2.15;;;15.10;64.70;;;;;;4185638;28;20039;-46
2021/06/05 00:06:03;;;;;;;1.60;1.33;;;15.80;63.10;;;;;;4193700;28;20115;-48
2021/06/05 00:08:07;;;;;;;3.60;1.80;;;16.40;61.60;;;;;;4188502;28;20032;-47
2021/06/05 00:10:13;;;;;;;3.45;1.45;;;17.00;60.30;;;;;;4183653;28;20083;-47
2021/06/05 00:12:19;;;;;;;2.58;1.23;;;17.40;59.60;;;;;;4191728;28;20036;-52
2021/06/05 00:14:21;;;;;;;4.05;1.80;;;17.40;59.30;;;;;;4195874;28;20546;-48
2021/06/05 00:16:37;;;;;;;3.67;1.50;;;17.30;59.30;;;;;;4189574;28;20047;-49
2021/06/05 00:18:39;;;;;;;3.40;1.55;;;17.60;58.90;;;;;;4185539;28;20560;-49
2021/06/05 00:20:42;;;;;;;1.77;1.27;;;18.00;58.10;;;;;;4189008;28;20024;-46
2021/06/05 00:22:45;;;;;;;3.42;1.77;;;18.40;57.20;;;;;;4193543;28;20404;-48
2021/06/05 00:24:47;;;;;;;3.22;1.50;;;18.80;56.40;;;;;;4187278;28;20036;-50
2021/06/05 00:26:50;;;;;;;3.08;1.50;;;19.20;55.80;;;;;;4192125;28;20046;-51
2021/06/05 00:28:52;;;;;;;;;;;19.50;55.10;;;;;;4189512;28;20039;-46
2021/06/05 00:30:55;;;;;;;1.88;1.42;;;19.80;55.60;;;;;;4190439;28;19919;-52
2021/06/05 00:32:58;;;;;;;2.92;1.50;;;20.10;54.20;;;;;;4199075;28;20111;-44
2021/06/05 00:35:00;;;;;;;5.18;1.85;;;20.30;53.70;;;;;;4203276;28;20024;-48
2021/06/05 00:37:03;;;;;;;2.10;1.50;;;20.60;53.40;;;;;;4207399;28;20032;-51
2021/06/05 00:39:06;;;;;;;1.83;1.30;;;20.60;53.50;;;;;;4210668;28;20069;-51
2021/06/05 00:41:09;;;;;;;;;;;20.40;53.80;;;;;;4213018;28;20410;-48
2021/06/05 00:43:14;;;;;;;3.03;1.48;;;20.00;54.40;;;;;;4192821;28;19935;-52
2021/06/05 00:45:18;;;;;;;4.78;1.52;;;19.80;54.40;;;;;;4193658;28;20073;-45
2021/06/05 00:47:20;;;;;;;2.22;1.40;;;20.00;54.40;;;;;;4190631;28;20028;-50
2021/06/05 00:49:22;;;;;;;3.95;1.55;;;20.30;54.00;;;;;;4188841;28;20928;-50
2021/06/05 00:51:49;;;;;;;3.85;1.40;;;20.70;53.40;;;;;;4186432;28;20047;-45
2021/06/05 00:53:51;;;;;;;2.20;1.40;;;20.80;53.20;;;;;;4190009;28;20033;-48
2021/06/05 00:55:56;;;;;;;5.80;1.70;;;20.60;53.40;;;;;;4192961;28;20307;-51
2021/06/05 00:57:58;;;;;;;2.30;1.42;;;20.30;53.60;;;;;;4191757;28;20060;-51
2021/06/05 01:00:01;;;;;;;2.03;1.40;;;20.20;53.80;;;;;;4183723;28;20621;-51
2021/06/05 01:02:03;;;;;;;1.83;1.63;;;;;;;;;;4187057;28;20467;-51
2021/06/05 01:04:05;;;;;;;6.28;1.60;;;;;;;;;;4186528;28;20493;-52
2021/06/05 01:06:16;;;;;;;2.30;1.80;;;;;;;;;;4190832;28;20044;-47
2021/06/05 01:08:41;;;;;;;2.83;1.60;;;;;;;;;;4193157;28;20491;-49
2021/06/05 01:10:44;;;;;;;2.83;1.80;;;;;;;;;;4179814;28;20040;-47
2021/06/05 01:13:17;;;;;;;8.17;1.97;;;20.40;53.50;;;;;;4193307;28;20036;-47
2021/06/05 01:15:19;;;;;;;2.58;1.70;;;;;;;;;;4187710;28;20096;-48
2021/06/05 01:17:28;;;;;;;2.63;1.65;;;;;;;;;;4192872;28;20036;-47
2021/06/05 01:19:36;;;;;;;2.95;1.60;;;;;;;;;;4190994;28;20040;-50
2021/06/05 01:21:56;;;;;;;2.10;1.52;;;;;;;;;;4192545;28;20104;-47
2021/06/05 01:24:04;;;;;;;3.50;1.55;;;;;;;;;;4188218;28;20248;-46
2021/06/05 01:26:14;;;;;;;6.82;1.98;;;;;;;;;;4190568;28;20038;-46
2021/06/05 01:28:19;;;;;;;5.47;2.15;;;;;;;;;;4189615;28;20044;-50
2021/06/05 01:30:31;;;;;;;7.40;2.53;;;20.80;51.90;;;;;;4191304;28;20036;-54
2021/06/05 01:32:36;;;;;;;4.32;2.30;;;20.30;47.60;;;;;;4190557;28;20085;-57
2021/06/05 01:34:55;;;;;;;4.60;2.10;;;20.00;47.90;;;;;;4193825;28;20066;-55
2021/06/05 01:36:58;;;;;;;4.68;2.30;;;19.70;48.40;;;;;;4187385;28;21763;-49
2021/06/05 01:39:05;;;;;;;4.78;2.55;;;19.40;49.10;;;;;;4194086;28;20075;-48
2021/06/05 01:41:09;;;;;;;6.25;2.22;;;19.20;49.60;;;;;;4188526;28;20552;-52
2021/06/05 01:43:14;;;;;;;2.92;2.25;;;19.00;49.80;;;;;;4189037;28;20071;-51
2021/06/05 01:45:27;;;;;;;7.88;2.40;;;18.80;49.60;;;;;;4188210;28;20036;-54
2021/06/05 01:47:30;;;;;;;5.90;2.30;;;18.60;49.90;;;;;;4193469;28;20344;-55
2021/06/05 01:49:33;;;;;;;7.75;2.30;;;18.40;50.00;;;;;;4196982;28;20031;-55
2021/06/05 01:51:39;;;;;;;3.83;2.38;;;18.30;50.10;;;;;;4186678;28;20032;-56
2021/06/05 01:53:56;;;;;;;3.53;1.92;;;18.10;50.30;;;;;;4189200;28;20020;-50
2021/06/05 01:56:26;;;;;;;4.82;2.10;;;17.90;50.60;;;;;;4198621;28;20032;-55
2021/06/05 01:58:30;;;;;;;5.65;1.98;;;17.80;50.80;;;;;;4197357;28;20040;-57
2021/06/05 02:00:38;;;;;;;3.33;2.10;;;17.70;50.90;;;;;;4196740;28;20067;-56
2021/06/05 02:02:41;;;;;;;4.40;2.30;;;17.60;51.40;;;;;;4195959;28;20134;-54
2021/06/05 02:04:45;;;;;;;6.10;2.67;;;17.50;51.60;;;;;;4200236;28;20094;-52
2021/06/05 02:06:56;;;;;;;3.85;2.13;;;17.40;51.90;;;;;;4199848;28;20047;-56
2021/06/05 02:09:02;;;;;;;4.40;2.38;;;17.30;52.10;;;;;;4194659;28;20390;-56
2021/06/05 02:11:11;;;;;;;2.97;2.10;;;17.20;52.40;;;;;;4202234;28;20024;-54
2021/06/05 02:13:20;;;;;;;5.13;2.38;;;17.20;52.80;;;;;;4196732;28;20093;-57
2021/06/05 02:15:46;;;;;;;2.78;1.90;;;17.10;53.10;;;;;;4194003;28;20230;-55
2021/06/05 02:17:50;;;;;;;2.67;1.77;;;17.00;53.30;;;;;;4199036;28;20598;-56
2021/06/05 02:20:05;;;;;;;3.30;2.10;;;17.00;53.50;;;;;;4195420;28;20040;-53
2021/06/05 02:22:13;;;;;;;3.42;2.00;;;16.90;53.70;;;;;;4198108;28;20115;-55
2021/06/05 02:24:36;;;;;;;2.85;1.98;;;16.90;54.00;;;;;;4200250;28;20058;-55
2021/06/05 02:26:43;;;;;;;4.50;2.03;;;16.80;54.30;;;;;;4217049;28;20118;-55
2021/06/05 02:28:50;;;;;;;3.28;2.20;;;16.80;54.50;;;;;;4203231;28;20039;-57
2021/06/05 02:30:52;;;;;;;2.72;1.90;;;16.70;54.80;;;;;;4202302;28;20036;-56
2021/06/05 02:32:56;;;;;;;3.60;1.92;;;16.70;55.10;;;;;;4197494;28;20036;-52
2021/06/05 02:34:59;;;;;;;3.85;2.25;;;16.70;55.30;;;;;;4204059;28;20020;-54
2021/06/05 02:37:05;;;;;;;3.15;1.90;;;16.60;55.30;;;;;;4198389;28;20050;-57
2021/06/05 02:39:09;;;;;;;2.90;1.83;;;16.60;55.60;;;;;;4201807;28;20039;-53
2021/06/05 02:41:11;;;;;;;;;;;16.50;55.60;;;;;;4202436;28;20053;-54
2021/06/05 02:43:21;;;;;;;2.97;1.77;;;16.50;55.80;;;;;;4200835;28;19924;-51
2021/06/05 02:45:51;;;;;;;3.72;2.35;;;16.50;56.00;;;;;;4214645;28;20468;-53
2021/06/05 02:47:57;;;;;;;2.83;1.90;;;16.40;56.10;;;;;;4192990;28;20039;-56
2021/06/05 02:50:08;;;;;;;1.90;1.70;;;16.40;56.20;;;;;;4202610;28;20024;-55
2021/06/05 02:52:28;;;;;;;3.50;1.95;;;16.40;56.40;;;;;;4198774;28;20323;-52
2021/06/05 02:54:31;;;;;;;2.53;1.75;;;16.40;56.60;;;;;;4201962;28;20047;-57
2021/06/05 02:56:34;;;;;;;4.05;1.90;;;16.30;56.60;;;;;;4203514;28;20123;-53
2021/06/05 02:58:37;;;;;;;3.13;2.23;;;16.30;56.90;;;;;;4203166;28;20016;-55
2021/06/05 03:00:44;;;;;;;3.22;2.10;;;16.30;56.70;;;;;;4193558;28;20184;-56
2021/06/05 03:02:47;;;;;;;2.58;2.00;;;16.30;56.80;;;;;;4192670;28;20453;-49
2021/06/05 03:04:49;;;;;;;3.75;1.77;;;16.30;56.60;;;;;;4195445;28;20055;-50
2021/06/05 03:06:52;;;;;;;2.40;1.80;;;16.30;56.60;;;;;;4195267;28;20040;-51
2021/06/05 03:08:57;;;;;;;2.67;2.10;;;16.30;56.70;;;;;;4181389;28;20043;-51
2021/06/05 03:11:01;;;;;;;3.03;2.10;;;16.30;56.80;;;;;;4196474;28;20020;-56
2021/06/05 03:13:06;;;;;;;2.53;2.08;;;16.30;56.90;;;;;;4188715;28;20089;-57
2021/06/05 03:15:10;;;;;;;2.20;1.70;;;16.30;56.80;;;;;;4197648;28;20119;-57
2021/06/05 03:17:12;;;;;;;3.88;2.17;;;16.30;56.80;;;;;;4197949;28;20103;-53
2021/06/05 03:19:15;;;;;;;3.63;1.90;;;16.30;56.90;;;;;;4197664;28;20104;-54
2021/06/05 03:21:20;;;;;;;2.42;1.70;;;16.40;57.10;;;;;;4192551;28;20035;-58
2021/06/05 03:23:27;;;;;;;2.60;2.08;;;16.30;57.00;;;;;;4192809;28;20093;-57
2021/06/05 03:25:30;;;;;;;3.55;2.13;;;16.40;57.00;;;;;;4191748;28;20027;-53
2021/06/05 03:27:51;;;;;;;2.80;1.88;;;16.40;56.90;;;;;;4193367;28;20040;-57
2021/06/05 03:29:53;;;;;;;3.22;1.85;;;16.40;57.50;;;;;;4191874;28;20139;-54
2021/06/05 03:31:57;;;;;;;3.33;1.95;;;16.40;56.70;;;;;;4194822;28;20040;-55
2021/06/05 03:34:00;;;;;;;2.85;1.63;;;16.50;56.70;;;;;;4197417;28;20039;-54
2021/06/05 03:36:06;;;;;;;2.53;1.58;;;16.50;56.70;;;;;;4190608;28;20043;-56
2021/06/05 03:38:10;;;;;;;2.33;1.75;;;16.50;56.70;;;;;;4197768;28;20451;-53
2021/06/05 03:40:16;;;;;;;3.28;2.03;;;16.50;56.60;;;;;;4198324;27;20043;-57
2021/06/05 03:42:18;;;;;;;2.65;1.92;;;16.60;56.70;;;;;;4186661;28;20125;-54
2021/06/05 03:44:21;;;;;;;4.27;1.93;;;16.60;56.90;;;;;;4191311;28;20374;-50
2021/06/05 03:46:23;;;;;;;3.90;1.67;;;16.60;56.50;;;;;;4196199;28;20691;-51
2021/06/05 03:48:25;;;;;;;3.08;1.67;;;16.60;56.50;;;;;;4189639;28;20053;-50
2021/06/05 03:50:32;;;;;;;1.55;1.38;;;16.70;56.60;;;;;;4203092;28;20307;-52
2021/06/05 03:52:34;;;;;;;2.95;1.80;;;16.70;56.60;;;;;;4196009;28;20032;-53
2021/06/05 03:54:38;;;;;;;3.08;1.70;;;16.70;56.50;;;;;;4194903;28;20399;-57
2021/06/05 03:56:40;;;;;;;3.88;1.63;;;16.70;56.50;;;;;;4192898;28;20028;-56
2021/06/05 03:58:45;;;;;;;2.10;1.50;;;16.80;56.50;;;;;;4193993;28;20040;-55
2021/06/05 04:00:47;;;;;;;2.33;1.80;;;16.80;56.40;;;;;;4195528;28;20051;-53
2021/06/05 04:02:49;;;;;;;2.60;1.65;;;16.80;56.30;;;;;;4192151;28;20157;-53
2021/06/05 04:04:55;;;;;;;2.00;1.58;;;16.80;56.20;;;;;;4188416;28;20044;-55
2021/06/05 04:06:57;;;;;;;4.68;1.52;;;16.90;56.20;;;;;;4188985;28;20448;-55
2021/06/05 04:09:00;;;;;;;2.63;1.52;;;16.90;56.20;;;;;;4194156;28;20520;-56
2021/06/05 04:11:03;;;;;;;3.65;1.52;;;16.90;56.00;;;;;;4190925;28;20369;-54
2021/06/05 04:13:09;;;;;;;2.58;1.50;;;17.00;56.00;;;;;;4187523;28;20425;-55
2021/06/05 04:15:14;;;;;;;1.75;1.30;;;17.00;55.80;;;;;;4190179;28;20212;-55
2021/06/05 04:17:20;;;;;;;2.35;1.50;;;17.00;55.80;;;;;;4195181;28;20020;-51
2021/06/05 04:19:22;;;;;;;2.83;1.52;;;17.00;55.60;;;;;;4182234;28;20580;-56
2021/06/05 04:21:26;;;;;;;2.08;1.73;;;17.10;55.50;;;;;;4188414;28;20044;-54
2021/06/05 04:23:29;;;;;;;2.00;1.52;;;17.10;55.40;;;;;;4188797;28;20037;-51
2021/06/05 04:25:31;;;;;;;2.28;1.85;;;17.10;55.30;;;;;;4188458;28;20059;-56
2021/06/05 04:27:33;;;;;;;2.72;1.60;;;17.20;55.30;;;;;;4191036;28;20044;-54
2021/06/05 04:29:36;;;;;;;2.25;1.70;;;17.20;55.30;;;;;;4182658;28;20056;-57
2021/06/05 04:31:40;;;;;;;2.60;1.98;;;17.30;55.30;;;;;;4192733;28;20039;-56
2021/06/05 04:33:49;;;;;;;1.65;1.40;;;17.30;55.20;;;;;;4188411;28;20027;-60
2021/06/05 04:35:53;;;;;;;1.52;1.25;;;17.30;55.00;;;;;;4188851;28;20082;-55
2021/06/05 04:37:56;;;;;;;3.75;1.85;;;17.40;55.00;;;;;;4192114;28;20032;-57
2021/06/05 04:40:03;;;;;;;3.17;1.40;;;17.40;55.00;;;;;;4194153;28;20032;-55
2021/06/05 04:42:06;;;;;;;3.80;1.63;;;17.50;55.00;;;;;;4194367;28;20295;-56
2021/06/05 04:44:08;;;;;;;2.13;1.40;;;17.50;55.00;;;;;;4197024;28;20142;-56
2021/06/05 04:46:13;;;;;;;3.65;1.55;;;17.60;55.10;;;;;;4192537;28;20047;-57
2021/06/05 04:48:18;;;;;;;3.17;1.52;;;17.60;54.90;;;;;;4199310;28;20464;-54
2021/06/05 04:50:23;;;;;;;2.55;1.25;;;17.60;55.00;;;;;;4191636;28;20036;-57
2021/06/05 04:52:25;;;;;;;1.90;1.30;;;17.70;54.90;;;;;;4201421;28;20528;-54
2021/06/05 04:54:28;;;;;;;4.00;1.55;;;17.70;54.80;;;;;;4197995;28;20096;-53
2021/06/05 04:56:40;;;;;;;3.75;1.50;;;17.70;54.60;;;;;;4200517;28;20020;-56
2021/06/05 04:58:50;;;;;;;2.42;1.48;;;17.80;54.50;;;;;;4202540;28;20047;-56
2021/06/05 05:00:54;;;;;;;2.90;2.15;;;17.80;54.30;;;;;;4199345;28;20036;-52
2021/06/05 05:02:57;;;;;;;2.20;1.67;;;17.80;54.10;;;;;;4192541;28;20130;-52
2021/06/05 05:05:00;;;;;;;5.45;2.28;;;17.80;54.00;;;;;;4191453;28;20151;-54
2021/06/05 05:07:02;;;;;;;3.50;1.90;;;17.80;53.90;;;;;;4196277;28;20036;-55
2021/06/05 05:09:10;;;;;;;2.85;1.95;;;17.90;53.80;;;;;;4195074;28;20047;-57
2021/06/05 05:11:13;;;;;;;4.30;2.30;;;17.80;53.80;;;;;;4194036;28;20523;-53
2021/06/05 05:13:20;;;;;;;2.28;1.75;;;17.90;53.70;;;;;;4188955;28;20627;-55
2021/06/05 05:15:23;;;;;;;2.63;1.80;;;17.80;53.70;;;;;;4188645;28;20039;-57
2021/06/05 05:17:25;;;;;;;2.38;1.83;;;17.90;53.70;;;;;;4191212;28;20175;-55
2021/06/05 05:19:30;;;;;;;2.83;2.00;;;17.80;53.50;;;;;;4183745;28;20035;-53
2021/06/05 05:21:33;;;;;;;2.42;1.85;;;17.90;53.60;;;;;;4185945;28;20529;-55
2021/06/05 05:23:36;;;;;;;3.05;2.17;;;17.80;53.50;;;;;;4191228;28;20044;-54
2021/06/05 05:25:43;;;;;;;2.63;2.20;;;17.80;53.50;;;;;;4208944;28;20500;-56
2021/06/05 05:27:48;;;;;;;2.90;2.00;;;17.90;53.40;;;;;;4186930;28;20285;-55
2021/06/05 05:29:51;;;;;;;3.25;1.65;;;17.90;53.00;;;;;;4182424;28;20051;-54
2021/06/05 05:31:53;;;;;;;3.38;2.17;;;17.90;53.00;;;;;;4187694;28;20028;-58
2021/06/05 05:34:02;;;;;;;3.17;2.22;;;17.90;53.00;;;;;;4188759;28;20036;-54
2021/06/05 05:36:11;;;;;;;3.25;1.95;;;17.90;52.90;;;;;;4163923;28;20043;-56
2021/06/05 05:38:19;;;;;;;2.65;2.05;;;17.90;52.80;;;;;;4174978;28;20036;-54
2021/06/05 05:40:25;;;;;;;3.00;2.13;;;17.90;52.70;;;;;;4186798;28;20401;-51
2021/06/05 05:42:27;;;;;;;4.32;2.28;;;17.90;52.70;;;;;;4187367;28;20587;-55
2021/06/05 05:44:30;;;;;;;3.15;2.33;;;17.90;52.80;;;;;;4158416;28;20184;-54
2021/06/05 05:46:36;;;;;;;3.00;2.20;;;17.80;52.70;;;;;;4194767;28;20428;-54
2021/06/05 05:48:42;;;;;;;3.00;2.17;;;17.80;52.90;;;;;;4190704;28;20036;-57
2021/06/05 05:50:48;;;;;;;3.37;2.20;;;17.80;53.00;;;;;;4190269;28;20432;-55
2021/06/05 05:52:58;;;;;;;3.35;2.10;;;17.70;53.00;;;;;;4192511;28;20465;-57
2021/06/05 05:55:09;;;;;;;3.83;1.90;;;17.70;53.10;;;;;;4189608;28;20048;-58
2021/06/05 05:57:16;;;;;;;3.42;2.00;;;17.70;53.20;;;;;;4186885;28;20082;-56
2021/06/05 05:59:20;;;;;;;2.28;1.77;;;17.60;53.10;;;;;;4189659;28;20074;-54
2021/06/05 06:01:24;;;;;;;3.15;2.05;;;17.60;53.20;;;;;;4191046;28;20142;-51
2021/06/05 06:03:27;;;;;;;2.60;1.88;;;17.50;53.30;;;;;;4187101;28;20730;-53
2021/06/05 06:05:30;;;;;;;3.15;1.90;;;17.50;53.50;;;;;;4178183;28;20119;-53
2021/06/05 06:07:32;;;;;;;2.53;1.77;;;17.50;53.70;;;;;;4203668;28;20120;-51
2021/06/05 06:09:37;;;;;;;2.28;1.88;;;17.40;53.60;;;;;;4190646;28;20397;-53
2021/06/05 06:11:46;;;;;;;2.47;1.77;;;17.40;53.80;;;;;;4195285;28;20032;-54
2021/06/05 06:13:48;;;;;;;2.58;1.90;;;17.40;53.90;;;;;;4189502;28;20028;-53
2021/06/05 06:15:52;;;;;;;3.25;1.88;;;17.40;54.00;;;;;;4192776;28;20418;-57
2021/06/05 06:17:56;;;;;;;2.72;1.95;;;17.40;54.00;;;;;;4182321;28;20292;-54
2021/06/05 06:20:00;;;;;;;3.78;2.05;;;17.30;53.90;;;;;;4183894;28;20685;-51
2021/06/05 06:22:03;;;;;;;3.50;2.20;;;17.30;54.00;;;;;;4193754;28;20058;-51
2021/06/05 06:24:06;;;;;;;3.22;2.15;;;17.30;54.10;;;;;;4189696;28;20070;-52
2021/06/05 06:26:16;;;;;;;2.75;2.10;;;17.40;54.00;;;;;;4191411;28;20428;-53
2021/06/05 06:28:28;;;;;;;3.03;1.92;;;17.30;54.00;;;;;;4189307;28;20618;-51
2021/06/05 06:30:34;;;;;;;2.58;2.20;;;17.30;54.10;;;;;;4191312;28;20043;-50
2021/06/05 06:32:39;;;;;;;3.40;2.15;;;17.30;54.20;;;;;;4191113;28;20103;-48
2021/06/05 06:34:42;;;;;;;3.78;2.05;;;17.30;54.40;;;;;;4190135;28;20020;-56
2021/06/05 06:36:45;;;;;;;3.85;2.55;;;17.30;54.20;;;;;;4190945;28;20047;-56
2021/06/05 06:38:50;;;;;;;3.33;2.30;;;17.30;54.20;;;;;;4191394;28;20075;-51
2021/06/05 06:40:53;;;;;;;3.97;2.05;;;17.20;54.20;;;;;;4191207;28;20530;-56
2021/06/05 06:42:56;;;;;;;3.20;2.22;;;17.20;54.30;;;;;;4192088;28;20470;-55
2021/06/05 06:44:59;;;;;;;3.22;2.03;;;17.10;54.50;;;;;;4194589;28;20346;-57
2021/06/05 06:47:01;;;;;;;2.72;2.10;;;17.10;54.70;;;;;;4193546;28;20024;-52
2021/06/05 06:49:06;;;;;;;2.70;2.30;;;17.00;54.80;;;;;;4181614;28;20052;-53
2021/06/05 06:51:11;;;;;;;3.80;2.28;;;17.00;55.00;;;;;;4158227;28;20033;-54
2021/06/05 06:53:13;;;;;;;4.38;2.33;;;17.00;55.20;;;;;;4185617;28;20392;-48
2021/06/05 06:55:16;;;;;;;3.10;2.13;;;16.90;55.30;;;;;;4190715;28;20040;-48
2021/06/05 06:57:19;;;;;;;3.05;2.10;;;16.90;55.60;;;;;;4190386;28;20546;-52
2021/06/05 06:59:21;;;;;;;4.68;2.75;;;16.90;55.70;;;;;;4194766;28;20119;-49
2021/06/05 07:01:24;;;;;;;3.45;2.15;;;16.90;55.90;;;;;;4193190;28;20064;-56
2021/06/05 07:03:30;;;;;;;3.25;2.35;;;16.80;56.10;;;;;;4176876;28;20094;-53
2021/06/05 07:05:33;;;;;;;3.28;2.20;;;16.80;56.20;;;;;;4176206;28;20181;-52
2021/06/05 07:07:36;;;;;;;3.63;2.35;;;16.80;56.30;;;;;;4191299;28;20017;-49
2021/06/05 07:09:41;;;;;;;6.47;2.60;;;16.80;56.40;;;;;;4184114;28;20033;-50
2021/06/05 07:11:44;;;;;;;3.60;2.20;;;16.70;56.50;;;;;;4193411;28;20075;-52
2021/06/05 07:13:47;;;;;;;2.88;2.03;;;16.70;56.60;;;;;;4196684;28;20144;-50
2021/06/05 07:15:50;;;;;;;3.00;2.20;;;16.70;56.70;;;;;;4189624;28;20043;-48
2021/06/05 07:18:04;;;;;;;3.65;2.33;;;16.70;56.70;;;;;;4157774;28;20049;-51
2021/06/05 07:20:07;;;;;;;2.83;2.13;;;16.70;56.80;;;;;;4184108;28;20554;-51
2021/06/05 07:22:10;;;;;;;3.97;2.53;;;16.60;56.80;;;;;;4190256;28;20032;-47
2021/06/05 07:24:29;;;;;;;6.70;2.50;;;16.60;57.00;;;;;;4191730;28;20523;-51
2021/06/05 07:26:32;;;;;;;4.57;2.70;;;16.60;57.10;;;;;;4195674;28;20508;-51
2021/06/05 07:28:42;;;;;;;4.07;2.60;;;16.60;57.20;;;;;;4196376;28;20033;-52
2021/06/05 07:30:45;;;;;;;4.60;2.63;;;16.60;57.30;;;;;;4194648;28;20048;-50
2021/06/05 07:32:47;;;;;;;4.28;2.63;;;16.60;57.40;;;;;;4190189;28;20031;-49
2021/06/05 07:34:50;;;;;;;4.10;2.58;;;16.50;57.20;;;;;;4193995;28;20576;-48
2021/06/05 07:37:02;;;;;;;4.35;2.60;;;16.50;57.20;;;;;;4189148;28;20037;-51
2021/06/05 07:39:07;;;;;;;5.47;3.38;;;16.50;57.30;;;;;;4191718;28;20039;-49
2021/06/05 07:41:10;;;;;;;5.07;2.80;;;16.50;57.30;;;;;;4193514;28;20346;-51
2021/06/05 07:43:13;;;;;;;4.60;3.50;;;16.50;57.40;;;;;;4192748;28;20048;-54
2021/06/05 07:45:15;;;;;;;;;;;16.50;57.40;;;;;;4190901;28;20123;-51
2021/06/05 07:47:18;;;;;;;4.68;3.15;;;16.50;57.40;;;;;;4197250;28;19912;-53
2021/06/05 07:49:22;;;;;;;5.43;3.35;;;16.40;57.30;;;;;;4194260;28;20051;-56
2021/06/05 07:51:24;;;;;;;6.13;3.30;;;16.40;57.50;;;;;;4195364;28;20044;-51
2021/06/05 07:53:27;;;;;;;5.47;3.25;;;16.40;57.50;;;;;;4190576;28;20079;-53
2021/06/05 07:55:31;;;;;;;5.85;3.17;;;16.40;57.60;;;;;;4191940;28;20020;-56
2021/06/05 07:57:33;;;;;;;6.38;3.35;;;16.40;57.60;;;;;;4188913;28;20131;-52
2021/06/05 07:59:36;;;;;;;4.70;3.00;;;16.40;57.70;;;;;;4188809;28;20026;-52
2021/06/05 08:01:38;;;;;;;4.38;3.00;;;16.40;57.70;;;;;;4193144;28;20042;-50
2021/06/05 08:03:40;;;;;;;4.25;2.70;;;16.30;58.40;;;;;;4190522;28;20056;-55
2021/06/05 08:05:43;;;;;;;6.75;2.95;;;16.30;57.70;;;;;;4192423;28;20116;-53
2021/06/05 08:07:46;;;;;;;4.05;2.67;;;16.30;58.00;;;;;;4193366;28;20137;-50
2021/06/05 08:09:48;;;;;;;3.97;2.40;;;16.30;58.10;;;;;;4195806;28;20363;-51
2021/06/05 08:11:50;;;;;;;6.57;2.57;;;16.30;58.70;;;;;;4181467;28;20032;-51
2021/06/05 08:13:53;;;;;;;3.65;2.60;;;16.30;58.10;;;;;;4194039;28;20066;-50
2021/06/05 08:15:55;;;;;;;3.17;2.20;;;16.30;58.10;;;;;;4196116;28;20126;-52
2021/06/05 08:17:59;;;;;;;3.78;2.47;;;16.30;58.30;;;;;;4194749;28;20070;-47
2021/06/05 08:20:02;;;;;;;3.58;2.33;;;16.30;58.20;;;;;;4196702;28;20039;-49
2021/06/05 08:22:06;;;;;;;4.10;2.40;;;16.30;58.30;;;;;;4184055;28;20090;-50
2021/06/05 08:24:13;;;;;;;3.88;2.10;;;16.30;58.60;;;;;;4196064;28;20080;-51
2021/06/05 08:26:24;;;;;;;4.13;2.30;;;16.20;58.60;;;;;;4196717;28;20035;-52
2021/06/05 08:28:27;;;;;;;3.85;2.10;;;16.20;58.60;;;;;;4186651;28;20349;-49
2021/06/05 08:30:34;;;;;;;4.05;2.08;;;16.20;58.60;;;;;;4195061;28;20093;-51
2021/06/05 08:32:36;;;;;;;3.03;2.20;;;16.20;58.70;;;;;;4199117;28;20047;-52
2021/06/05 08:34:39;;;;;;;4.00;2.35;;;16.20;58.70;;;;;;4187786;28;20370;-51
2021/06/05 08:36:41;;;;;;;3.78;2.00;;;16.20;58.80;;;;;;4196038;28;20402;-52
2021/06/05 08:38:44;;;;;;;3.28;2.20;;;16.20;58.90;;;;;;4195596;28;20024;-50
2021/06/05 08:41:17;;;;;;;2.85;2.25;;;16.20;58.90;;;;;;4196581;28;20040;-49
2021/06/05 08:43:34;;;;;;;3.80;2.65;;;16.20;58.90;;;;;;4193316;28;20579;-56
2021/06/05 08:45:37;;;;;;;2.95;2.10;;;16.10;58.90;;;;;;4193917;28;20043;-52
2021/06/05 08:47:40;;;;;;;4.07;2.20;;;16.20;59.10;;;;;;4198664;28;20484;-55
2021/06/05 08:49:45;;;;;;;3.20;2.08;;;16.10;59.00;;;;;;4193603;28;20043;-48
2021/06/05 08:51:56;;;;;;;3.65;2.33;;;16.20;59.10;;;;;;4193448;28;20506;-51
2021/06/05 08:54:24;;;;;;;3.42;2.50;;;16.10;59.10;;;;;;4192893;28;20047;-48
2021/06/05 08:56:37;;;;;;;4.15;2.50;;;16.10;59.10;;;;;;4199901;28;20024;-48
2021/06/05 08:59:01;;;;;;;4.18;2.30;;;16.10;59.10;;;;;;4198129;28;20422;-51
2021/06/05 09:01:26;;;;;;;4.43;2.50;;;16.10;59.20;;;;;;4201333;28;20434;-57
2021/06/05 09:03:38;;;;;;;2.92;2.35;;;16.10;59.20;;;;;;4194951;28;20182;-53
2021/06/05 09:05:54;;;;;;;4.07;2.72;;;16.10;59.20;;;;;;4191725;28;20037;-55
2021/06/05 09:08:00;;;;;;;3.90;2.60;;;16.10;59.20;;;;;;4208433;28;20096;-55
2021/06/05 09:10:05;;;;;;;4.60;2.63;;;16.00;59.20;;;;;;4204928;28;20547;-52
2021/06/05 09:12:16;;;;;;;3.42;2.28;;;16.00;59.20;;;;;;4200266;28;20061;-55
2021/06/05 09:14:19;;;;;;;3.85;2.85;;;16.00;59.20;;;;;;4206518;28;20024;-53
2021/06/05 09:16:24;;;;;;;3.72;2.78;;;16.00;59.20;;;;;;4205037;28;20123;-53
2021/06/05 09:18:46;;;;;;;5.25;3.22;;;16.00;59.20;;;;;;4197867;28;20043;-54
2021/06/05 09:21:07;;;;;;;4.50;3.10;;;16.00;59.30;;;;;;4192575;28;20041;-53
2021/06/05 09:23:27;;;;;;;4.00;2.95;;;16.00;59.20;;;;;;4200872;28;20040;-50
2021/06/05 09:25:39;;;;;;;4.70;3.30;;;15.90;59.20;;;;;;4197082;28;20057;-52
2021/06/05 09:27:41;;;;;;;4.60;3.40;;;15.90;59.30;;;;;;4195460;28;20446;-56
2021/06/05 09:30:06;;;;;;;6.65;3.85;;;15.90;59.30;;;;;;4201465;28;20035;-54
2021/06/05 09:32:14;;;;;;;4.80;3.67;;;15.90;59.20;;;;;;4196703;28;20069;-54
2021/06/05 09:34:17;;;;;;;4.90;3.85;;;15.90;59.40;;;;;;4200728;28;20489;-50
2021/06/05 09:36:25;;;;;;;3.95;3.17;;;15.90;59.30;;;;;;4197270;28;20469;-56
2021/06/05 09:38:38;;;;;;;4.78;3.60;;;15.90;59.40;;;;;;4197687;28;20023;-51
2021/06/05 09:40:53;;;;;;;5.05;4.05;;;15.90;59.40;;;;;;4198561;28;20380;-49
2021/06/05 09:43:08;;;;;;;4.82;3.60;;;15.80;59.30;;;;;;4199434;28;20115;-54
2021/06/05 09:45:37;;;;;;;5.57;4.30;;;15.80;59.40;;;;;;4195086;28;20044;-50
2021/06/05 09:47:40;;;;;;;6.28;4.70;;;15.80;59.40;;;;;;4197545;28;20484;-51
2021/06/05 09:50:18;;;;;;;5.13;4.40;;;15.80;59.40;;;;;;4200713;28;20052;-51
2021/06/05 09:52:31;;;;;;;6.20;4.47;;;15.80;59.40;;;;;;4199500;28;20443;-55
2021/06/05 09:54:47;;;;;;;5.07;4.15;;;15.80;59.40;;;;;;4180750;28;20164;-54
2021/06/05 09:56:50;;;;;;;5.50;4.25;;;15.70;59.40;;;;;;4195547;28;20581;-53
2021/06/05 09:59:06;;;;;;;5.60;4.20;;;15.70;59.40;;;;;;4200542;28;20013;-49
2021/06/05 10:01:24;;;;;;;7.07;5.22;;;15.70;59.40;;;;;;4198661;28;20441;-52
2021/06/05 10:03:33;;;;;;;6.60;5.35;;;15.70;59.50;;;;;;4198006;28;20071;-52
2021/06/05 10:05:39;;;;;;;22.83;6.28;;;15.70;59.40;;;;;;4190040;28;20040;-57
2021/06/05 10:07:41;;;;;;;8.70;5.07;;;15.70;59.90;;;;;;4195424;28;20069;-61
2021/06/05 10:09:43;;;;;;;6.55;5.05;;;15.70;60.10;;;;;;4191118;28;20259;-59
2021/06/05 10:11:49;;;;;;;8.10;5.15;;;15.70;60.20;;;;;;4193380;28;20056;-60
2021/06/05 10:14:16;;;;;;;6.03;4.60;;;15.70;60.20;;;;;;4192599;28;20034;-58
2021/06/05 10:16:21;;;;;;;7.53;4.63;;;15.70;60.40;;;;;;4192658;28;20047;-59
2021/06/05 10:18:34;;;;;;;6.47;4.55;;;15.70;60.50;;;;;;4193961;28;20084;-59
2021/06/05 10:20:59;;;;;;;5.60;4.65;;;15.70;60.60;;;;;;4194658;28;20028;-51
2021/06/05 10:23:02;;;;;;;8.63;4.80;;;15.70;60.90;;;;;;4191927;28;20059;-58
2021/06/05 10:25:37;;;;;;;6.38;4.50;;;15.70;61.00;;;;;;4193155;28;20509;-61
2021/06/05 10:27:44;;;;;;;5.40;4.55;;;15.70;61.10;;;;;;4192786;28;20464;-57
2021/06/05 10:29:55;;;;;;;6.55;4.53;;;15.70;61.10;;;;;;4189758;28;20065;-59
2021/06/05 10:32:01;;;;;;;6.47;4.95;;;15.70;61.20;;;;;;4196425;28;20024;-58
2021/06/05 10:34:28;;;;;;;8.20;5.00;;;15.70;61.40;;;;;;4188462;28;20571;-58
2021/06/05 10:36:35;;;;;;;8.13;4.53;;;15.70;61.40;;;;;;4194298;28;20127;-53
2021/06/05 10:38:50;;;;;;;8.23;4.90;;;15.70;61.60;;;;;;4192799;28;20032;-53
2021/06/05 10:40:53;;;;;;;7.68;5.25;;;15.70;61.70;;;;;;4188588;28;20526;-54
2021/06/05 10:42:56;;;;;;;7.70;5.47;;;15.70;61.70;;;;;;4193219;28;20051;-53
2021/06/05 10:44:59;;;;;;;11.43;7.30;;;15.70;61.70;;;;;;4193766;28;20032;-53
2021/06/05 10:47:27;;;;;;;14.32;8.02;;;15.70;61.50;;;;;;4198592;28;20392;-56
2021/06/05 10:49:56;;;;;;;16.33;7.53;;;15.70;62.00;;;;;;4192764;28;20043;-52
2021/06/05 10:52:27;;;;;;;12.27;7.53;;;15.70;62.10;;;;;;4197732;28;20501;-54
2021/06/05 10:54:31;;;;;;;8.85;6.55;;;15.80;62.00;;;;;;4197087;28;20429;-54
2021/06/05 10:56:35;;;;;;;;;;;15.80;61.90;;;;;;4186501;28;20389;-55
2021/06/05 10:58:43;;;;;;;10.48;7.35;;;15.80;61.90;;;;;;4199755;28;19973;-54
2021/06/05 11:00:56;;;;;;;11.77;7.18;;;15.80;61.90;;;;;;4198964;28;20357;-52
2021/06/05 11:03:00;;;;;;;12.00;8.00;;;15.80;62.00;;;;;;4196715;28;20040;-55
2021/06/05 11:05:32;;;;;;;9.95;7.20;;;15.70;61.90;;;;;;4195098;28;20075;-58
2021/06/05 11:07:35;;;;;;;11.77;8.27;;;15.80;62.00;;;;;;4199339;28;20035;-57